Olympic Champion — SYWD — position and weather

sailwx.info

Track history (hours):
 
Tides and Currents Weather Stations Pressure Air Temp Water Temp Dewpoint Dewpoint Depression Visibility Wind Speed Wind Dir Waves Ship Positions

Olympic Champion

Last reported at 2014-Jul-23 21:33 UTC. Time now 2014-Jul-23 21:46 UTC.
Position N 37°15' E 023°50'.

Length 204 m; draft 6.4 m.

Type: Passenger vessel. MMSI: 237280000.

Date/timePositionNaut miles runAvg speedWind from/ knotsBaromVisibWave heightAir tempDewpointWater temp
2014-Jul-23 21:33N 37°15' E 023°50'2218.6
2014-Jul-23 20:22N 37°36' E 023°43'1518.5
2014-Jul-23 19:33N 37°50' E 023°37'7 6.5
2014-Jul-23 18:33N 37°57' E 023°38'0 0.0
2014-Jul-23 17:33N 37°57' E 023°38'0 0.0
2014-Jul-23 16:33N 37°57' E 023°38'0 0.0
2014-Jul-23 15:33N 37°57' E 023°38'0 0.0
2014-Jul-23 14:33N 37°57' E 023°38'0 0.0
2014-Jul-23 13:33N 37°57' E 023°38'0 0.0
2014-Jul-23 12:33N 37°57' E 023°38'0 0.0
2014-Jul-23 11:33N 37°57' E 023°38'0 0.0
2014-Jul-23 09:33N 37°57' E 023°38'0 0.0
2014-Jul-23 08:33N 37°57' E 023°38'0 0.0
2014-Jul-23 07:33N 37°57' E 023°38'0 0.0
2014-Jul-23 06:33N 37°57' E 023°38'0 0.0
2014-Jul-23 05:33N 37°57' E 023°38'4 2.2
2014-Jul-23 03:33N 37°53' E 023°39'4418.4
2014-Jul-23 01:09N 37°10' E 023°53'1118.0
2014-Jul-23 00:32N 36°59' E 023°55'1818.0
2014-Jul-22 23:33N 36°41' E 023°59'1817.6
2014-Jul-22 22:31N 36°24' E 024°02'1717.7
2014-Jul-22 21:33N 36°07' E 024°07'3717.7
2014-Jul-22 19:28N 35°30' E 024°12'13 0.7
2014-Jul-22 02:32N 35°43' E 024°12'2119.1
2014-Jul-22 01:25N 36°04' E 024°07'1819.2
2014-Jul-22 00:28N 36°22' E 024°03'2319.3
2014-Jul-21 23:16N 36°45' E 023°59'5218.4
2014-Jul-21 20:26N 37°36' E 023°44'318.0
2014-Jul-21 20:17N 37°38' E 023°43'1318.4
2014-Jul-21 19:33N 37°51' E 023°37'6 6.4
2014-Jul-21 18:33N 37°57' E 023°38'0 0.0
2014-Jul-21 17:33N 37°57' E 023°38'0 0.0
2014-Jul-21 16:33N 37°57' E 023°38'0 0.0
2014-Jul-21 15:33N 37°57' E 023°38'0 0.0
2014-Jul-21 14:33N 37°57' E 023°38'0 0.0
2014-Jul-21 13:33N 37°57' E 023°38'0 0.0
2014-Jul-21 12:33N 37°57' E 023°38'0 0.0
2014-Jul-21 11:33N 37°57' E 023°38'0 0.0
2014-Jul-21 10:33N 37°57' E 023°38'0 0.0
2014-Jul-21 09:33N 37°57' E 023°38'0 0.0
2014-Jul-21 08:33N 37°57' E 023°38'0 0.0
2014-Jul-21 07:33N 37°57' E 023°38'0 0.0
2014-Jul-21 06:33N 37°57' E 023°38'3 1.2
2014-Jul-21 03:33N 37°53' E 023°38'5418.1
2014-Jul-21 00:33N 37°01' E 023°55'2418.1
2014-Jul-20 23:15N 36°38' E 024°01'1818.1
2014-Jul-20 22:14N 36°19' E 024°04'1318.4
2014-Jul-20 21:33N 36°07' E 024°06'1918.5
2014-Jul-20 20:31N 35°48' E 024°10'1 0.1
2014-Jul-20 15:24N 35°48' E 024°10'4921.7
2014-Jul-20 13:09N 36°36' E 024°00'2221.5
2014-Jul-20 12:08N 36°57' E 023°55'4121.1
2014-Jul-20 10:12N 37°37' E 023°43'72 3.6
2014-Jul-19 14:33N 36°27' E 024°02'2219.0
2014-Jul-19 13:22N 36°05' E 024°07'1719.1
2014-Jul-19 12:30N 35°49' E 024°10'1918.5
2014-Jul-19 11:28N 35°30' E 024°12'5 0.6
2014-Jul-19 03:06N 35°35' E 024°13'1318.1
2014-Jul-19 02:22N 35°48' E 024°11'2318.4
2014-Jul-19 01:08N 36°10' E 024°06'1218.8
2014-Jul-19 00:32N 36°22' E 024°03'2318.9
2014-Jul-18 23:18N 36°44' E 023°58'1518.8
2014-Jul-18 22:31N 36°59' E 023°54'2318.2
2014-Jul-18 21:15N 37°21' E 023°48'1318.4
2014-Jul-18 20:33N 37°34' E 023°44'1818.2
2014-Jul-18 19:33N 37°51' E 023°37'6 6.1
2014-Jul-18 18:33N 37°57' E 023°38'0 0.0
2014-Jul-18 17:33N 37°57' E 023°38'2 1.8
2014-Jul-18 16:33N 37°56' E 023°37'2120.1
2014-Jul-18 15:31N 37°36' E 023°46'2321.2
2014-Jul-18 14:27N 37°14' E 023°51'4620.9
2014-Jul-18 12:14N 36°28' E 024°01'1520.7
2014-Jul-18 11:31N 36°14' E 024°05'2121.0
2014-Jul-18 10:30N 35°53' E 024°09'1 0.1
2014-Jul-18 02:18N 35°53' E 024°10'2018.6
2014-Jul-18 01:13N 36°13' E 024°05'1218.3
2014-Jul-18 00:33N 36°25' E 024°03'1918.1
2014-Jul-17 23:30N 36°43' E 023°58'2118.1
2014-Jul-17 22:22N 37°03' E 023°53'3317.6
2014-Jul-17 20:31N 37°35' E 023°44'1717.8
2014-Jul-17 19:33N 37°51' E 023°37'6 5.7
2014-Jul-17 18:33N 37°57' E 023°38'0 0.0
2014-Jul-17 17:33N 37°57' E 023°38'0 0.0
2014-Jul-17 16:33N 37°57' E 023°38'0 0.0
2014-Jul-17 15:33N 37°57' E 023°38'0 0.0
2014-Jul-17 14:33N 37°57' E 023°38'0 0.0
2014-Jul-17 13:33N 37°57' E 023°38'0 0.0
2014-Jul-17 12:33N 37°57' E 023°38'0 0.0
2014-Jul-17 11:33N 37°57' E 023°38'0 0.0
2014-Jul-17 10:33N 37°57' E 023°38'0 0.0
2014-Jul-17 09:33N 37°57' E 023°38'0 0.0
2014-Jul-17 08:33N 37°57' E 023°38'0 0.0
2014-Jul-17 07:33N 37°57' E 023°38'0 0.0
2014-Jul-17 06:33N 37°57' E 023°38'0 0.0
2014-Jul-17 05:33N 37°57' E 023°38'0 0.0
2014-Jul-17 04:33N 37°57' E 023°38'2 2.5
2014-Jul-17 03:33N 37°54' E 023°37'129 5.1
2014-Jul-16 02:22N 35°48' E 024°11'1519.1
2014-Jul-16 01:33N 36°04' E 024°07'4218.7
2014-Jul-15 23:17N 36°45' E 023°59'5418.2
2014-Jul-15 20:18N 37°38' E 023°42'1318.1
2014-Jul-15 19:33N 37°51' E 023°37'6 6.2
2014-Jul-15 18:33N 37°57' E 023°38'0 0.0
2014-Jul-15 17:33N 37°57' E 023°38'0 0.0
2014-Jul-15 16:33N 37°57' E 023°38'0 0.0
2014-Jul-15 15:33N 37°57' E 023°38'0 0.0
2014-Jul-15 14:33N 37°57' E 023°38'0 0.0
2014-Jul-15 13:33N 37°57' E 023°38'0 0.0
2014-Jul-15 12:33N 37°57' E 023°38'0 0.0
2014-Jul-15 11:33N 37°57' E 023°38'0 0.0
2014-Jul-15 10:33N 37°57' E 023°38'0 0.0
2014-Jul-15 09:33N 37°57' E 023°38'0 0.0
2014-Jul-15 08:33N 37°57' E 023°38'0 0.0
2014-Jul-15 07:33N 37°57' E 023°38'0 0.0
2014-Jul-15 06:33N 37°57' E 023°38'0 0.0
2014-Jul-15 05:33N 37°57' E 023°38'0 0.0
2014-Jul-15 04:33N 37°57' E 023°38'2 2.0
2014-Jul-15 03:33N 37°55' E 023°36'1514.8
2014-Jul-15 02:33N 37°42' E 023°45'6719.1
2014-Jul-14 23:04N 36°36' E 024°00'1919.4
2014-Jul-14 22:06N 36°18' E 024°04'6 0.3
2014-Jul-14 00:15N 36°24' E 024°03'  
Track history (hours):
 
Tides and Currents Weather Stations Pressure Air Temp Water Temp Dewpoint Dewpoint Depression Visibility Wind Speed Wind Dir Waves Ship Positions

Olympic Champion

Last reported at 2014-Jul-23 21:33 UTC. Time now 2014-Jul-23 21:46 UTC.
Position N 37°15' E 023°50'.

Length 204 m; draft 6.4 m.

Type: Passenger vessel. MMSI: 237280000.

Date/timePositionNaut miles runAvg speedWind from/ knotsBaromVisibWave heightAir tempDewpointWater temp
2014-Jul-23 21:33N 37°15' E 023°50'2218.6
2014-Jul-23 20:22N 37°36' E 023°43'1518.5
2014-Jul-23 19:33N 37°50' E 023°37'7 6.5
2014-Jul-23 18:33N 37°57' E 023°38'0 0.0
2014-Jul-23 17:33N 37°57' E 023°38'0 0.0
2014-Jul-23 16:33N 37°57' E 023°38'0 0.0
2014-Jul-23 15:33N 37°57' E 023°38'0 0.0
2014-Jul-23 14:33N 37°57' E 023°38'0 0.0
2014-Jul-23 13:33N 37°57' E 023°38'0 0.0
2014-Jul-23 12:33N 37°57' E 023°38'0 0.0
2014-Jul-23 11:33N 37°57' E 023°38'0 0.0
2014-Jul-23 09:33N 37°57' E 023°38'0 0.0
2014-Jul-23 08:33N 37°57' E 023°38'0 0.0
2014-Jul-23 07:33N 37°57' E 023°38'0 0.0
2014-Jul-23 06:33N 37°57' E 023°38'0 0.0
2014-Jul-23 05:33N 37°57' E 023°38'4 2.2
2014-Jul-23 03:33N 37°53' E 023°39'4418.4
2014-Jul-23 01:09N 37°10' E 023°53'1118.0
2014-Jul-23 00:32N 36°59' E 023°55'1818.0
2014-Jul-22 23:33N 36°41' E 023°59'1817.6
2014-Jul-22 22:31N 36°24' E 024°02'1717.7
2014-Jul-22 21:33N 36°07' E 024°07'3717.7
2014-Jul-22 19:28N 35°30' E 024°12'13 0.7
2014-Jul-22 02:32N 35°43' E 024°12'2119.1
2014-Jul-22 01:25N 36°04' E 024°07'1819.2
2014-Jul-22 00:28N 36°22' E 024°03'2319.3
2014-Jul-21 23:16N 36°45' E 023°59'5218.4
2014-Jul-21 20:26N 37°36' E 023°44'318.0
2014-Jul-21 20:17N 37°38' E 023°43'1318.4
2014-Jul-21 19:33N 37°51' E 023°37'6 6.4
2014-Jul-21 18:33N 37°57' E 023°38'0 0.0
2014-Jul-21 17:33N 37°57' E 023°38'0 0.0
2014-Jul-21 16:33N 37°57' E 023°38'0 0.0
2014-Jul-21 15:33N 37°57' E 023°38'0 0.0
2014-Jul-21 14:33N 37°57' E 023°38'0 0.0
2014-Jul-21 13:33N 37°57' E 023°38'0 0.0
2014-Jul-21 12:33N 37°57' E 023°38'0 0.0
2014-Jul-21 11:33N 37°57' E 023°38'0 0.0
2014-Jul-21 10:33N 37°57' E 023°38'0 0.0
2014-Jul-21 09:33N 37°57' E 023°38'0 0.0
2014-Jul-21 08:33N 37°57' E 023°38'0 0.0
2014-Jul-21 07:33N 37°57' E 023°38'0 0.0
2014-Jul-21 06:33N 37°57' E 023°38'3 1.2
2014-Jul-21 03:33N 37°53' E 023°38'5418.1
2014-Jul-21 00:33N 37°01' E 023°55'2418.1
2014-Jul-20 23:15N 36°38' E 024°01'1818.1
2014-Jul-20 22:14N 36°19' E 024°04'1318.4
2014-Jul-20 21:33N 36°07' E 024°06'1918.5
2014-Jul-20 20:31N 35°48' E 024°10'1 0.1
2014-Jul-20 15:24N 35°48' E 024°10'4921.7
2014-Jul-20 13:09N 36°36' E 024°00'2221.5
2014-Jul-20 12:08N 36°57' E 023°55'4121.1
2014-Jul-20 10:12N 37°37' E 023°43'72 3.6
2014-Jul-19 14:33N 36°27' E 024°02'2219.0
2014-Jul-19 13:22N 36°05' E 024°07'1719.1
2014-Jul-19 12:30N 35°49' E 024°10'1918.5
2014-Jul-19 11:28N 35°30' E 024°12'5 0.6
2014-Jul-19 03:06N 35°35' E 024°13'1318.1
2014-Jul-19 02:22N 35°48' E 024°11'2318.4
2014-Jul-19 01:08N 36°10' E 024°06'1218.8
2014-Jul-19 00:32N 36°22' E 024°03'2318.9
2014-Jul-18 23:18N 36°44' E 023°58'1518.8
2014-Jul-18 22:31N 36°59' E 023°54'2318.2
2014-Jul-18 21:15N 37°21' E 023°48'1318.4
2014-Jul-18 20:33N 37°34' E 023°44'1818.2
2014-Jul-18 19:33N 37°51' E 023°37'6 6.1
2014-Jul-18 18:33N 37°57' E 023°38'0 0.0
2014-Jul-18 17:33N 37°57' E 023°38'2 1.8
2014-Jul-18 16:33N 37°56' E 023°37'2120.1
2014-Jul-18 15:31N 37°36' E 023°46'2321.2
2014-Jul-18 14:27N 37°14' E 023°51'4620.9
2014-Jul-18 12:14N 36°28' E 024°01'1520.7
2014-Jul-18 11:31N 36°14' E 024°05'2121.0
2014-Jul-18 10:30N 35°53' E 024°09'1 0.1
2014-Jul-18 02:18N 35°53' E 024°10'2018.6
2014-Jul-18 01:13N 36°13' E 024°05'1218.3
2014-Jul-18 00:33N 36°25' E 024°03'1918.1
2014-Jul-17 23:30N 36°43' E 023°58'2118.1
2014-Jul-17 22:22N 37°03' E 023°53'3317.6
2014-Jul-17 20:31N 37°35' E 023°44'1717.8
2014-Jul-17 19:33N 37°51' E 023°37'6 5.7
2014-Jul-17 18:33N 37°57' E 023°38'0 0.0
2014-Jul-17 17:33N 37°57' E 023°38'0 0.0
2014-Jul-17 16:33N 37°57' E 023°38'0 0.0
2014-Jul-17 15:33N 37°57' E 023°38'0 0.0
2014-Jul-17 14:33N 37°57' E 023°38'0 0.0
2014-Jul-17 13:33N 37°57' E 023°38'0 0.0
2014-Jul-17 12:33N 37°57' E 023°38'0 0.0
2014-Jul-17 11:33N 37°57' E 023°38'0 0.0
2014-Jul-17 10:33N 37°57' E 023°38'0 0.0
2014-Jul-17 09:33N 37°57' E 023°38'0 0.0
2014-Jul-17 08:33N 37°57' E 023°38'0 0.0
2014-Jul-17 07:33N 37°57' E 023°38'0 0.0
2014-Jul-17 06:33N 37°57' E 023°38'0 0.0
2014-Jul-17 05:33N 37°57' E 023°38'0 0.0
2014-Jul-17 04:33N 37°57' E 023°38'2 2.5
2014-Jul-17 03:33N 37°54' E 023°37'129 5.1
2014-Jul-16 02:22N 35°48' E 024°11'1519.1
2014-Jul-16 01:33N 36°04' E 024°07'4218.7
2014-Jul-15 23:17N 36°45' E 023°59'5418.2
2014-Jul-15 20:18N 37°38' E 023°42'1318.1
2014-Jul-15 19:33N 37°51' E 023°37'6 6.2
2014-Jul-15 18:33N 37°57' E 023°38'0 0.0
2014-Jul-15 17:33N 37°57' E 023°38'0 0.0
2014-Jul-15 16:33N 37°57' E 023°38'0 0.0
2014-Jul-15 15:33N 37°57' E 023°38'0 0.0
2014-Jul-15 14:33N 37°57' E 023°38'0 0.0
2014-Jul-15 13:33N 37°57' E 023°38'0 0.0
2014-Jul-15 12:33N 37°57' E 023°38'0 0.0
2014-Jul-15 11:33N 37°57' E 023°38'0 0.0
2014-Jul-15 10:33N 37°57' E 023°38'0 0.0
2014-Jul-15 09:33N 37°57' E 023°38'0 0.0
2014-Jul-15 08:33N 37°57' E 023°38'0 0.0
2014-Jul-15 07:33N 37°57' E 023°38'0 0.0
2014-Jul-15 06:33N 37°57' E 023°38'0 0.0
2014-Jul-15 05:33N 37°57' E 023°38'0 0.0
2014-Jul-15 04:33N 37°57' E 023°38'2 2.0
2014-Jul-15 03:33N 37°55' E 023°36'1514.8
2014-Jul-15 02:33N 37°42' E 023°45'6719.1
2014-Jul-14 23:04N 36°36' E 024°00'1919.4
2014-Jul-14 22:06N 36°18' E 024°04'6 0.3
2014-Jul-14 00:15N 36°24' E 024°03'  

Dump ship's entire track history